Palmer, PR (00721)

3:41 AM AST on September 16, 2014 (GMT -0400)
Ciudad Jardin | Change Station
CLOSE
Current Station
Personal Weather Station
Location: Carolina, PR
Elevation: 10 ft
Nearby Weather Stations

Elev 10 ft 18.37 °N, 65.93 °W | Updated 5 minutes ago

Clear
Clear
74.4 °F
Feels Like 73 °F
N
0.0
Wind Variable Wind from SE
Gusts 0.0 mph

Today
High -- | Low -- °F
--% Chance of Precip.
Yesterday
High -- | Low -- °F
Precip. -- in
6:11 AM 6:24 PM
Waning Gibbous, 48% visible
Pressure 30.00 in
Visibility 10.0 miles
Clouds Clear
Heat Index 73 °F
Dew Point 72 °F
Humidity 92%
Rainfall 0.00 in
Snow Depth Not available.
UV 0 out of 12
Pollen Not available.
Air Quality Not available.
Flu Activity Not available.
METAR TJNR 160653Z AUTO 00000KT 10SM CLR 24/22 A3000 RMK AO2 SLP158 T02390222 $

More Conditions Fewer Conditions

Pressure 30.00 in
Visibility 10.0 miles
Clouds Clear
Heat Index 73 °F
Dew Point 72 °F
Humidity 92%
Rainfall 0.00 in
Snow Depth Not available.
UV 0 out of 12
Pollen Not available.
Air Quality Not available.
Flu Activity Not available.
METAR TJNR 160653Z AUTO 00000KT 10SM CLR 24/22 A3000 RMK AO2 SLP158 T02390222 $

More Conditions Fewer Conditions

10-Day Weather Forecast

Almanac

Astronomy

Sep. 16, 2014 Rise Set
Actual Time 6:11 AM AST 6:24 PM AST
Civil Twilight 5:49 AM AST 6:46 PM AST
Nautical Twilight 5:23 AM AST 7:11 PM AST
Astronomical Twilight 4:58 AM AST 7:37 PM AST
Moon No Moon Rise 1:09 PM AST
Length of Visible Light 12h 57m
Length of Day
12h 13m
Tomorrow will be 1m 2s shorter.
Waning Gibbous, 48% of the Moon is Illuminated
Today
Waning Gibbous
Sep 24
New
Oct 1
First Quarter
Oct 8
Full
Oct 15
Last Quarter

Community

WunderPhotos

Upload Photos

1,753,712 photos uploaded!

Nearby

Snow Depth

Station Depth Elevation
No new snow has been reported.

Earthquake Activity

City Distance Mag. Time & Date
No recent earthquake activity has been reported nearby.
Minimum magnitude displayed is 2.5.

Coastal Water Temperatures

Place Temperature
San Juan, PR 84.9 °F
Mayaguez, PR 84.0 °F
Esperanza, PR 84.9 °F

Nearby Weather Stations